Time;durP1;ratioP1;P1;durP2;ratioP2;P2;SDS_P1;SDS_P2;PMS_P1;PMS_P2;Temp;Humidity;BMP_temperature;BMP_pressure;BME280_temperature;BME280_humidity;BME280_pressure;Samples;Min_cycle;Max_cycle;Signal;HPM_P1;HPM_P2
2023/10/19 00:01:15;;;;;;;;;;;21.80;96.80;;;;;;5110922;28;19942;-71
2023/10/19 00:03:44;;;;;;;;;;;22.00;96.40;;;;;;5096736;28;19908;-68
2023/10/19 00:06:11;;;;;;;;;;;22.00;95.90;;;;;;5097002;28;19919;-73
2023/10/19 00:08:41;;;;;;;;;;;22.20;95.50;;;;;;5114750;28;19953;-67
2023/10/19 00:11:09;;;;;;;;;;;22.30;95.20;;;;;;5104216;28;19916;-73
2023/10/19 00:13:39;;;;;;;;;;;22.20;94.40;;;;;;5115323;28;19907;-66
2023/10/19 00:16:39;;;;;;;;;;;22.10;94.20;;;;;;5114914;28;20333;-74
2023/10/19 00:19:00;;;;;;;;;;;22.00;94.60;;;;;;5110140;28;20400;-67
2023/10/19 00:21:36;;;;;;;;;;;21.90;94.70;;;;;;5109245;28;19920;-68
2023/10/19 00:24:05;;;;;;;;;;;21.80;95.00;;;;;;5115135;28;19908;-68
2023/10/19 00:26:32;;;;;;;;;;;21.60;95.40;;;;;;5114970;28;19986;-70
2023/10/19 00:29:03;;;;;;;;;;;21.60;95.40;;;;;;5113376;28;20014;-64
2023/10/19 00:31:33;;;;;;;;;;;21.40;95.10;;;;;;5109474;28;20383;-74
2023/10/19 00:34:00;;;;;;;;;;;21.20;95.00;;;;;;5113889;28;19916;-69
2023/10/19 00:36:30;;;;;;;;;;;21.10;95.30;;;;;;5114224;28;19907;-73
2023/10/19 00:38:59;;;;;;;;;;;21.00;95.10;;;;;;5113899;28;19966;-69
2023/10/19 00:41:32;;;;;;;;;;;21.10;95.40;;;;;;5114125;28;19920;-70
2023/10/19 00:44:04;;;;;;;;;;;21.10;95.80;;;;;;5108686;28;19911;-73
2023/10/19 00:47:13;;;;;;;;;;;21.20;95.80;;;;;;5114133;28;19912;-75
2023/10/19 00:49:23;;;;;;;;;;;21.30;96.00;;;;;;5066486;28;19924;-75
2023/10/19 00:52:10;;;;;;;;;;;21.20;95.90;;;;;;5072384;28;20008;-70
2023/10/19 00:54:58;;;;;;;;;;;21.20;95.30;;;;;;5072542;28;19908;-71
2023/10/19 00:57:36;;;;;;;;;;;21.30;96.00;;;;;;5073128;28;20369;-68
2023/10/19 01:00:12;;;;;;;;;;;21.40;95.70;;;;;;5057489;28;19913;-69
2023/10/19 01:02:46;;;;;;;;;;;21.20;95.40;;;;;;5051946;28;19982;-68
2023/10/19 01:05:21;;;;;;;;;;;21.20;95.50;;;;;;5053873;28;20015;-71
2023/10/19 01:07:55;;;;;;;;;;;21.20;95.70;;;;;;5054505;28;19935;-67
2023/10/19 01:10:28;;;;;;;;;;;21.10;95.80;;;;;;5054298;28;19909;-67
2023/10/19 01:12:55;;;;;;;;;;;21.10;96.10;;;;;;5056962;28;19920;-71
2023/10/19 01:17:58;;;;;;;;;;;21.30;96.10;;;;;;5072291;28;20273;-70
2023/10/19 01:25:34;;;;;;;;;;;21.70;94.30;;;;;;5052239;28;19909;-70
2023/10/19 01:28:08;;;;;;;;;;;22.00;93.30;;;;;;5052186;28;19913;-67
2023/10/19 01:30:36;;;;;;;;;;;22.40;92.90;;;;;;5053624;28;19909;-67
2023/10/19 01:33:04;;;;;;;;;;;22.80;91.90;;;;;;5061763;28;20452;-67
2023/10/19 01:38:17;;;;;;;;;;;23.40;91.10;;;;;;5062122;28;20399;-69
2023/10/19 01:40:46;;;;;;;;;;;23.80;90.00;;;;;;5073517;28;19916;-68
2023/10/19 01:43:30;;;;;;;;;;;24.10;88.50;;;;;;5066292;28;19920;-70
2023/10/19 01:45:58;;;;;;;;;;;24.20;89.40;;;;;;5065263;28;19915;-71
2023/10/19 01:48:34;;;;;;;;;;;24.20;89.20;;;;;;5097310;28;20276;-69
2023/10/19 01:51:06;;;;;;;;;;;24.10;86.60;;;;;;5113679;28;20391;-69
2023/10/19 01:53:34;;;;;;;;;;;23.90;87.90;;;;;;5113079;28;19943;-70
2023/10/19 01:56:01;;;;;;;;;;;23.80;87.30;;;;;;5113655;28;19950;-69
2023/10/19 01:58:27;;;;;;;;;;;23.70;88.20;;;;;;5113814;28;19908;-66
2023/10/19 02:00:55;;;;;;;;;;;23.70;88.20;;;;;;5113932;28;19911;-66
2023/10/19 02:03:23;;;;;;;;;;;23.60;88.20;;;;;;5104628;28;19908;-64
2023/10/19 02:05:50;;;;;;;;;;;23.60;89.30;;;;;;5093051;28;20329;-66
2023/10/19 02:08:17;;;;;;;;;;;23.80;88.50;;;;;;5092984;28;19919;-68
2023/10/19 02:10:48;;;;;;;;;;;23.60;88.70;;;;;;5092987;28;19908;-67
2023/10/19 02:13:15;;;;;;;;;;;23.50;88.00;;;;;;5099797;28;19912;-69
2023/10/19 02:15:43;;;;;;;;;;;23.40;88.40;;;;;;5113641;28;20362;-70
2023/10/19 02:18:10;;;;;;;;;;;23.30;89.20;;;;;;5113352;28;20357;-66
2023/10/19 02:20:40;;;;;;;;;;;23.40;88.50;;;;;;5113474;28;19963;-70
2023/10/19 02:23:11;;;;;;;;;;;23.40;89.80;;;;;;5106444;28;20424;-71
2023/10/19 02:25:38;;;;;;;;;;;23.20;88.40;;;;;;5092917;28;19931;-74
2023/10/19 02:28:09;;;;;;;;;;;23.10;88.60;;;;;;5092865;28;19908;-70
2023/10/19 02:30:35;;;;;;;;;;;23.00;88.60;;;;;;5092755;28;20030;-66
2023/10/19 02:33:03;;;;;;;;;;;22.80;88.90;;;;;;5101045;28;19908;-72
2023/10/19 02:35:30;;;;;;;;;;;22.90;89.30;;;;;;5092715;28;20003;-67
2023/10/19 02:37:58;;;;;;;;;;;22.90;88.90;;;;;;5093245;28;19912;-67
2023/10/19 02:40:25;;;;;;;;;;;23.10;89.10;;;;;;5092650;28;20355;-73
2023/10/19 02:42:53;;;;;;;;;;;23.40;87.30;;;;;;5096587;28;20364;-66
2023/10/19 02:45:19;;;;;;;;;;;23.80;88.10;;;;;;5110874;28;20000;-66
2023/10/19 02:47:47;;;;;;;;;;;24.40;87.20;;;;;;5108353;27;19951;-67
2023/10/19 02:50:16;;;;;;;;;;;24.80;84.80;;;;;;5113907;27;19923;-73
2023/10/19 02:52:43;;;;;;;;;;;25.00;85.20;;;;;;5098976;28;19912;-66
2023/10/19 02:55:10;;;;;;;;;;;25.30;84.50;;;;;;5092629;28;19908;-67
2023/10/19 02:57:37;;;;;;;;;;;25.30;81.90;;;;;;5095465;28;19908;-69
2023/10/19 03:00:14;;;;;;;;;;;25.50;83.00;;;;;;5111429;28;20316;-70
2023/10/19 03:02:40;;;;;;;;;;;25.80;81.60;;;;;;5111002;28;20328;-73
2023/10/19 03:05:17;;;;;;;;;;;26.30;80.00;;;;;;5112187;28;19962;-73
2023/10/19 03:07:44;;;;;;;;;;;26.20;78.80;;;;;;5112841;28;19908;-71
2023/10/19 03:12:57;;;;;;;;;;;25.50;79.70;;;;;;5107613;28;19938;-69
2023/10/19 03:15:23;;;;;;;;;;;25.50;79.60;;;;;;5111257;28;19950;-74
2023/10/19 03:17:50;;;;;;;;;;;25.40;79.90;;;;;;5112436;28;20027;-72
2023/10/19 03:20:18;;;;;;;;;;;24.80;81.10;;;;;;5110923;28;20402;-68
2023/10/19 03:22:46;;;;;;;;;;;24.90;82.40;;;;;;5111846;28;19912;-68
2023/10/19 03:28:12;;;;;;;;;;;24.80;82.70;;;;;;5062995;28;19935;-71
2023/10/19 03:30:38;;;;;;;;;;;24.40;83.60;;;;;;5102019;28;19912;-64
2023/10/19 03:33:08;;;;;;;;;;;24.40;84.50;;;;;;5106010;28;20327;-68
2023/10/19 03:35:41;;;;;;;;;;;24.60;83.90;;;;;;5111933;28;20381;-75
2023/10/19 03:38:14;;;;;;;;;;;24.50;84.60;;;;;;5101332;28;19911;-74
2023/10/19 03:40:45;;;;;;;;;;;24.80;84.00;;;;;;5097998;28;19923;-70
2023/10/19 03:43:17;;;;;;;;;;;25.00;83.80;;;;;;5094931;28;19931;-74
2023/10/19 03:45:51;;;;;;;;;;;24.90;84.20;;;;;;5096021;28;19908;-67
2023/10/19 03:48:26;;;;;;;;;;;25.10;84.10;;;;;;5116210;28;19923;-70
2023/10/19 03:50:56;;;;;;;;;;;25.50;82.60;;;;;;5116030;28;20421;-72
2023/10/19 03:53:23;;;;;;;;;;;25.80;81.60;;;;;;5113192;27;19940;-64
2023/10/19 03:55:50;;;;;;;;;;;25.90;81.70;;;;;;5125299;27;19915;-74
2023/10/19 03:58:17;;;;;;;;;;;25.90;81.80;;;;;;5118492;27;19915;-66
2023/10/19 04:00:44;;;;;;;;;;;25.70;82.80;;;;;;5115833;28;19916;-72
2023/10/19 04:03:11;;;;;;;;;;;25.50;83.10;;;;;;5110680;28;19934;-72
2023/10/19 04:05:38;;;;;;;;;;;25.10;83.90;;;;;;5113021;28;19927;-71
2023/10/19 04:08:34;;;;;;;;;;;24.70;83.50;;;;;;5105321;28;19912;-72
2023/10/19 04:11:21;;;;;;;;;;;24.60;84.10;;;;;;5096713;28;19919;-70
2023/10/19 04:13:52;;;;;;;;;;;24.60;85.60;;;;;;5112572;28;19956;-69
2023/10/19 04:16:20;;;;;;;;;;;26.30;82.90;;;;;;5113290;28;19938;-73
2023/10/19 04:18:48;;;;;;;;;;;28.50;78.20;;;;;;5115458;28;19922;-73
2023/10/19 04:21:15;;;;;;;;;;;29.40;74.10;;;;;;5114747;28;20363;-70
2023/10/19 04:23:46;;;;;;;;;;;30.50;72.10;;;;;;5096120;28;19907;-67
2023/10/19 04:26:14;;;;;;;;;;;29.60;72.10;;;;;;5111590;28;20045;-67
2023/10/19 04:28:50;;;;;;;;;;;30.00;74.90;;;;;;5098060;28;19923;-66
2023/10/19 04:31:18;;;;;;;;;;;30.50;70.60;;;;;;5112901;28;20273;-70
2023/10/19 04:33:49;;;;;;;;;;;31.50;69.30;;;;;;5109631;28;19912;-70
2023/10/19 04:36:16;;;;;;;;;;;32.90;67.60;;;;;;5110776;28;19923;-72
2023/10/19 04:38:44;;;;;;;;;;;34.00;67.00;;;;;;5094737;28;19908;-71
2023/10/19 04:41:11;;;;;;;;;;;35.00;62.40;;;;;;5103408;28;20399;-71
2023/10/19 04:43:39;;;;;;;;;;;34.80;60.90;;;;;;5109850;27;19916;-69
2023/10/19 04:46:08;;;;;;;;;;;35.60;60.00;;;;;;5111823;28;20046;-69
2023/10/19 04:48:35;;;;;;;;;;;35.70;58.90;;;;;;5105952;27;19987;-68
2023/10/19 04:51:04;;;;;;;;;;;35.30;58.90;;;;;;5112393;28;19908;-71
2023/10/19 04:53:32;;;;;;;;;;;35.90;59.00;;;;;;5112319;27;19959;-69
2023/10/19 04:56:03;;;;;;;;;;;36.50;57.90;;;;;;5109972;28;19966;-66
2023/10/19 04:58:30;;;;;;;;;;;36.90;57.80;;;;;;5101625;27;19912;-68
2023/10/19 05:00:58;;;;;;;;;;;36.90;56.10;;;;;;5109498;28;19916;-72
2023/10/19 05:03:26;;;;;;;;;;;37.00;56.20;;;;;;5111497;27;19911;-71
2023/10/19 05:05:52;;;;;;;;;;;36.10;56.50;;;;;;5112738;28;19918;-71
2023/10/19 05:08:19;;;;;;;;;;;36.00;56.50;;;;;;5109902;27;19912;-65
2023/10/19 05:10:46;;;;;;;;;;;35.70;55.90;;;;;;5107622;28;19912;-68
2023/10/19 05:13:13;;;;;;;;;;;35.70;56.40;;;;;;5109478;27;19990;-67
2023/10/19 05:15:42;;;;;;;;;;;35.00;55.80;;;;;;5092820;28;19916;-74
2023/10/19 05:18:09;;;;;;;;;;;34.70;56.40;;;;;;5092989;28;19908;-69
2023/10/19 05:20:40;;;;;;;;;;;33.60;56.60;;;;;;5112435;28;19964;-74
2023/10/19 05:23:08;;;;;;;;;;;34.00;56.90;;;;;;5108090;27;20444;-70
2023/10/19 05:25:36;;;;;;;;;;;34.20;57.10;;;;;;5112446;28;19994;-75
2023/10/19 05:28:04;;;;;;;;;;;33.90;57.20;;;;;;5111601;28;20387;-72
2023/10/19 05:30:31;;;;;;;;;;;33.70;57.80;;;;;;5110223;28;19960;-69
2023/10/19 05:32:58;;;;;;;;;;;33.90;58.10;;;;;;5095750;28;19952;-71
2023/10/19 05:35:29;;;;;;;;;;;34.20;57.40;;;;;;5105616;27;20398;-66
2023/10/19 05:38:00;;;;;;;;;;;34.00;57.40;;;;;;5093646;28;19955;-67
2023/10/19 05:40:29;;;;;;;;;;;33.30;58.30;;;;;;5111930;28;19916;-73
2023/10/19 05:42:57;;;;;;;;;;;32.80;59.20;;;;;;5110231;28;19918;-76
2023/10/19 05:45:26;;;;;;;;;;;33.30;59.00;;;;;;5111238;28;19954;-72
2023/10/19 05:47:53;;;;;;;;;;;33.60;57.40;;;;;;5107231;28;19977;-68
2023/10/19 05:50:20;;;;;;;;;;;32.30;59.00;;;;;;5101626;28;20029;-67
2023/10/19 05:52:48;;;;;;;;;;;32.80;59.40;;;;;;5110646;28;19911;-68
2023/10/19 05:55:15;;;;;;;;;;;32.20;59.30;;;;;;5109690;28;19986;-65
2023/10/19 05:57:42;;;;;;;;;;;31.40;60.50;;;;;;5111656;28;20280;-72
2023/10/19 06:00:13;;;;;;;;;;;31.20;60.60;;;;;;5105824;27;19919;-65
2023/10/19 06:02:43;;;;;;;;;;;32.10;62.70;;;;;;5103499;28;19915;-71
2023/10/19 06:05:10;;;;;;;;;;;32.40;60.70;;;;;;5108912;27;20376;-71
2023/10/19 06:07:37;;;;;;;;;;;33.20;60.00;;;;;;5112767;28;19929;-70
2023/10/19 06:10:04;;;;;;;;;;;33.10;58.90;;;;;;5099340;28;19956;-71
2023/10/19 06:12:31;;;;;;;;;;;32.60;59.40;;;;;;5099529;28;19919;-73
2023/10/19 06:15:00;;;;;;;;;;;32.10;59.20;;;;;;5106041;28;19920;-72
2023/10/19 06:17:29;;;;;;;;;;;32.10;60.60;;;;;;5092537;28;19919;-72
2023/10/19 06:19:56;;;;;;;;;;;32.10;59.30;;;;;;5105033;28;19915;-73
2023/10/19 06:22:23;;;;;;;;;;;31.30;58.80;;;;;;5092753;28;20262;-71
2023/10/19 06:24:57;;;;;;;;;;;31.90;58.50;;;;;;5106459;28;19970;-66
2023/10/19 06:27:27;;;;;;;;;;;30.10;59.50;;;;;;5092961;28;20387;-69
2023/10/19 06:29:59;;;;;;;;;;;30.20;60.80;;;;;;5112192;28;20381;-64
2023/10/19 06:32:26;;;;;;;;;;;31.00;60.50;;;;;;5076663;28;20370;-70
2023/10/19 06:34:57;;;;;;;;;;;31.10;60.00;;;;;;5104145;28;19934;-66
2023/10/19 06:37:27;;;;;;;;;;;31.30;61.00;;;;;;5110962;28;19915;-75
2023/10/19 06:39:56;;;;;;;;;;;31.70;60.70;;;;;;5110999;28;20029;-74
2023/10/19 06:42:25;;;;;;;;;;;31.90;59.70;;;;;;5112113;28;20334;-72
2023/10/19 06:45:01;;;;;;;;;;;31.50;60.80;;;;;;5107922;28;19911;-69
2023/10/19 06:47:32;;;;;;;;;;;31.20;60.80;;;;;;5106902;28;19919;-68
2023/10/19 06:50:02;;;;;;;;;;;30.50;61.20;;;;;;5109985;28;20351;-67
2023/10/19 06:52:29;;;;;;;;;;;30.30;62.80;;;;;;5099274;28;19922;-65
2023/10/19 06:54:56;;;;;;;;;;;29.70;63.40;;;;;;5113501;28;20477;-66
2023/10/19 06:57:23;;;;;;;;;;;29.70;64.00;;;;;;5112767;28;19912;-67
2023/10/19 06:59:52;;;;;;;;;;;28.80;65.10;;;;;;5095152;28;20018;-73
2023/10/19 07:02:20;;;;;;;;;;;28.00;66.30;;;;;;5107066;28;19920;-71
2023/10/19 07:04:47;;;;;;;;;;;26.90;69.00;;;;;;5092898;28;19942;-67
2023/10/19 07:07:14;;;;;;;;;;;26.20;69.80;;;;;;5092517;28;19965;-69
2023/10/19 07:09:41;;;;;;;;;;;25.50;71.10;;;;;;5092696;28;19908;-71
2023/10/19 07:12:08;;;;;;;;;;;24.60;73.00;;;;;;5091504;28;19961;-73
2023/10/19 07:14:34;;;;;;;;;;;24.00;75.90;;;;;;5093356;28;20356;-72
2023/10/19 07:17:01;;;;;;;;;;;23.50;76.10;;;;;;5107036;28;19911;-71
2023/10/19 07:19:29;;;;;;;;;;;23.00;78.20;;;;;;5112185;28;19994;-74
2023/10/19 07:21:58;;;;;;;;;;;22.40;80.10;;;;;;5109212;28;19928;-68
2023/10/19 07:24:25;;;;;;;;;;;21.80;82.30;;;;;;5110330;28;20006;-67
2023/10/19 07:27:04;;;;;;;;;;;21.50;84.00;;;;;;5109217;28;19957;-72
2023/10/19 07:29:35;;;;;;;;;;;21.30;85.10;;;;;;5093596;28;19911;-69
2023/10/19 07:32:04;;;;;;;;;;;21.10;86.80;;;;;;5111826;28;19919;-66
2023/10/19 07:34:34;;;;;;;;;;;21.00;87.90;;;;;;5108774;28;19976;-68
2023/10/19 07:37:01;;;;;;;;;;;20.90;88.90;;;;;;5109344;28;19908;-73
2023/10/19 07:39:29;;;;;;;;;;;20.90;90.10;;;;;;5111221;28;19964;-66
2023/10/19 07:41:56;;;;;;;;;;;20.80;90.50;;;;;;5108298;28;19942;-69
2023/10/19 07:44:23;;;;;;;;;;;20.70;90.40;;;;;;5108043;28;19911;-65
2023/10/19 07:46:50;;;;;;;;;;;20.70;90.70;;;;;;5108565;28;19919;-69
2023/10/19 07:49:17;;;;;;;;;;;20.50;91.30;;;;;;5111120;28;19920;-68
2023/10/19 07:51:47;;;;;;;;;;;20.60;91.70;;;;;;5091766;28;19918;-71
2023/10/19 07:54:14;;;;;;;;;;;20.50;92.00;;;;;;5103977;28;20368;-68
2023/10/19 07:56:40;;;;;;;;;;;20.50;92.20;;;;;;5108218;28;19958;-69
2023/10/19 07:59:07;;;;;;;;;;;20.50;92.60;;;;;;5108279;28;19916;-66
2023/10/19 08:01:34;;;;;;;;;;;20.40;92.60;;;;;;5089550;28;19915;-66
2023/10/19 08:04:01;;;;;;;;;;;20.30;93.40;;;;;;5110643;28;19930;-69
2023/10/19 08:06:27;;;;;;;;;;;20.30;93.90;;;;;;5092262;28;19908;-71
2023/10/19 08:08:55;;;;;;;;;;;20.20;94.20;;;;;;5107588;28;19912;-71
2023/10/19 08:11:21;;;;;;;;;;;20.10;94.40;;;;;;5110862;28;19922;-70
2023/10/19 08:13:49;;;;;;;;;;;20.10;94.70;;;;;;5094295;28;19981;-68
2023/10/19 08:16:16;;;;;;;;;;;20.00;95.20;;;;;;5110019;28;19923;-71
2023/10/19 08:18:43;;;;;;;;;;;19.90;95.60;;;;;;5108970;28;19944;-72
2023/10/19 08:21:10;;;;;;;;;;;19.90;96.20;;;;;;5110249;28;20014;-68
2023/10/19 08:23:37;;;;;;;;;;;19.70;96.50;;;;;;5111017;28;20352;-66
2023/10/19 08:26:08;;;;;;;;;;;19.70;97.00;;;;;;5108655;28;19918;-73
2023/10/19 08:28:37;;;;;;;;;;;19.60;97.50;;;;;;5108938;28;19947;-70
2023/10/19 08:31:05;;;;;;;;;;;19.70;97.70;;;;;;5112387;27;19924;-68
2023/10/19 08:33:33;;;;;;;;;;;19.60;98.00;;;;;;5115045;28;19908;-67
2023/10/19 08:36:00;;;;;;;;;;;19.70;98.50;;;;;;5110408;27;19938;-73
2023/10/19 08:38:26;;;;;;;;;;;19.60;98.80;;;;;;5110719;27;19916;-68
2023/10/19 08:40:54;;;;;;;;;;;19.50;99.10;;;;;;5110982;27;19915;-71
2023/10/19 08:43:21;;;;;;;;;;;19.50;99.50;;;;;;5108399;28;19927;-74
2023/10/19 08:45:49;;;;;;;;;;;19.40;99.90;;;;;;5106957;28;19919;-73
2023/10/19 08:48:15;;;;;;;;;;;19.40;99.90;;;;;;5108429;28;20419;-73
2023/10/19 08:50:43;;;;;;;;;;;19.40;99.90;;;;;;5108698;28;19912;-67
2023/10/19 08:53:14;;;;;;;;;;;19.30;99.90;;;;;;5109981;28;19916;-70
2023/10/19 08:55:40;;;;;;;;;;;19.20;99.90;;;;;;5111717;27;20364;-70
2023/10/19 08:58:07;;;;;;;;;;;19.30;99.90;;;;;;5114308;28;19992;-68
2023/10/19 09:00:46;;;;;;;;;;;19.30;99.90;;;;;;5113488;27;19923;-68
2023/10/19 09:03:15;;;;;;;;;;;19.30;99.90;;;;;;5113607;28;19912;-69
2023/10/19 09:05:45;;;;;;;;;;;19.20;99.90;;;;;;5105761;27;19916;-72
2023/10/19 09:08:19;;;;;;;;;;;19.20;99.90;;;;;;5113214;28;19911;-68
2023/10/19 09:10:46;;;;;;;;;;;19.20;99.90;;;;;;5114657;27;19915;-69
2023/10/19 09:13:15;;;;;;;;;;;19.20;99.90;;;;;;5114251;28;20352;-71
2023/10/19 09:15:42;;;;;;;;;;;19.20;99.90;;;;;;5104738;28;19992;-70
2023/10/19 09:18:16;;;;;;;;;;;19.20;99.90;;;;;;5112674;28;19918;-68
2023/10/19 09:20:52;;;;;;;;;;;19.30;99.90;;;;;;5110817;27;20356;-68
2023/10/19 09:23:21;;;;;;;;;;;19.30;99.90;;;;;;5109128;28;19922;-67
2023/10/19 09:25:48;;;;;;;;;;;19.20;99.90;;;;;;5107719;28;20002;-70
2023/10/19 09:28:15;;;;;;;;;;;19.20;99.90;;;;;;5095395;28;19916;-69
2023/10/19 09:30:43;;;;;;;;;;;19.10;99.90;;;;;;5113466;28;19998;-72
2023/10/19 09:33:09;;;;;;;;;;;19.00;99.90;;;;;;5112522;28;19915;-69
2023/10/19 09:35:37;;;;;;;;;;;19.00;99.90;;;;;;5107056;28;20386;-71
2023/10/19 09:38:07;;;;;;;;;;;19.10;99.90;;;;;;5113768;28;19940;-68
2023/10/19 09:40:34;;;;;;;;;;;18.90;99.90;;;;;;5112483;27;19922;-70
2023/10/19 09:43:06;;;;;;;;;;;19.00;99.90;;;;;;5103054;28;19939;-73
2023/10/19 09:45:35;;;;;;;;;;;19.00;99.90;;;;;;5107288;28;19914;-67
2023/10/19 09:48:02;;;;;;;;;;;19.00;99.90;;;;;;5105513;28;19920;-68
2023/10/19 09:50:29;;;;;;;;;;;18.90;99.90;;;;;;5113105;28;19951;-66
2023/10/19 09:52:56;;;;;;;;;;;18.90;99.90;;;;;;5097343;27;19912;-72
2023/10/19 09:55:30;;;;;;;;;;;18.90;99.90;;;;;;5092180;28;19935;-68
2023/10/19 09:57:59;;;;;;;;;;;18.90;99.90;;;;;;5097944;27;19935;-67
2023/10/19 10:00:26;;;;;;;;;;;18.90;99.90;;;;;;5093392;28;19918;-68
2023/10/19 10:02:55;;;;;;;;;;;18.90;99.90;;;;;;5112614;28;19944;-65
2023/10/19 10:05:40;;;;;;;;;;;18.90;99.90;;;;;;5088305;28;19966;-68
2023/10/19 10:08:18;;;;;;;;;;;18.80;99.90;;;;;;5093018;28;19935;-68
2023/10/19 10:10:46;;;;;;;;;;;18.70;99.90;;;;;;5093739;28;20288;-71
2023/10/19 10:13:31;;;;;;;;;;;18.70;99.90;;;;;;5113072;28;19907;-72
2023/10/19 10:16:00;;;;;;;;;;;18.70;99.90;;;;;;5103517;28;19912;-65
2023/10/19 10:18:30;;;;;;;;;;;18.70;99.90;;;;;;5112627;28;19908;-71
2023/10/19 10:21:13;;;;;;;;;;;18.70;99.90;;;;;;5112903;28;19911;-68
2023/10/19 10:23:42;;;;;;;;;;;18.60;99.90;;;;;;5112720;28;19936;-66
2023/10/19 10:26:13;;;;;;;;;;;18.60;99.90;;;;;;5102371;28;19957;-70
2023/10/19 10:28:41;;;;;;;;;;;18.50;99.90;;;;;;5100109;28;20002;-67
2023/10/19 10:31:09;;;;;;;;;;;18.50;99.90;;;;;;5095478;28;19919;-69
2023/10/19 10:33:39;;;;;;;;;;;18.60;99.90;;;;;;5112795;28;19904;-75
2023/10/19 10:36:06;;;;;;;;;;;18.50;99.90;;;;;;5102260;28;19970;-70
2023/10/19 10:38:35;;;;;;;;;;;18.60;99.90;;;;;;5111411;28;19925;-73
2023/10/19 10:41:02;;;;;;;;;;;18.50;99.90;;;;;;5096339;28;20296;-67
2023/10/19 10:43:29;;;;;;;;;;;18.50;99.90;;;;;;5112017;28;19933;-71
2023/10/19 10:46:07;;;;;;;;;;;18.50;99.90;;;;;;5106994;28;20272;-70
2023/10/19 10:48:35;;;;;;;;;;;18.50;99.90;;;;;;5109677;28;19926;-71
2023/10/19 10:51:02;;;;;;;;;;;18.40;99.90;;;;;;5111786;28;19914;-73
2023/10/19 10:53:29;;;;;;;;;;;18.40;99.90;;;;;;5109831;28;19907;-71
2023/10/19 10:55:55;;;;;;;;;;;18.40;99.90;;;;;;5112750;28;19915;-69
2023/10/19 10:58:22;;;;;;;;;;;18.40;99.90;;;;;;5094501;28;20370;-72
2023/10/19 11:00:51;;;;;;;;;;;18.40;99.90;;;;;;5112801;28;20272;-65
2023/10/19 11:03:18;;;;;;;;;;;18.40;99.90;;;;;;5101893;28;20396;-72
2023/10/19 11:05:47;;;;;;;;;;;18.40;99.90;;;;;;5100037;28;19919;-69
2023/10/19 11:08:16;;;;;;;;;;;18.30;99.90;;;;;;5102382;28;19912;-71
2023/10/19 11:10:44;;;;;;;;;;;18.30;99.90;;;;;;5091941;28;19908;-71
2023/10/19 11:13:11;;;;;;;;;;;18.30;99.90;;;;;;5092663;28;20387;-71
2023/10/19 11:15:39;;;;;;;;;;;18.20;99.90;;;;;;5093750;28;19960;-72
2023/10/19 11:18:09;;;;;;;;;;;18.20;99.90;;;;;;5091957;28;19915;-71
2023/10/19 11:20:36;;;;;;;;;;;18.20;99.90;;;;;;5093569;28;19916;-72
2023/10/19 11:23:02;;;;;;;;;;;18.20;99.90;;;;;;5092111;28;20261;-72
2023/10/19 11:25:30;;;;;;;;;;;18.20;99.90;;;;;;5092622;28;19947;-70
2023/10/19 11:28:01;;;;;;;;;;;18.10;99.90;;;;;;5092893;28;20371;-74
2023/10/19 11:30:28;;;;;;;;;;;18.20;99.90;;;;;;5092618;28;19918;-70
2023/10/19 11:33:02;;;;;;;;;;;18.10;99.90;;;;;;5092420;28;19926;-69
2023/10/19 11:35:32;;;;;;;;;;;18.10;99.90;;;;;;5092611;28;19990;-71
2023/10/19 11:38:03;;;;;;;;;;;18.10;99.90;;;;;;5092697;28;20015;-70
2023/10/19 11:40:30;;;;;;;;;;;18.10;99.90;;;;;;5092414;28;20356;-72
2023/10/19 11:42:58;;;;;;;;;;;18.10;99.90;;;;;;5092182;28;20019;-65
2023/10/19 11:45:25;;;;;;;;;;;18.10;99.90;;;;;;5101056;28;20322;-70
2023/10/19 11:47:52;;;;;;;;;;;18.10;99.90;;;;;;5092285;28;20011;-72
2023/10/19 11:50:19;;;;;;;;;;;18.00;99.90;;;;;;5091664;28;19912;-67
2023/10/19 11:52:46;;;;;;;;;;;17.90;99.90;;;;;;5092048;28;19908;-65
2023/10/19 11:55:13;;;;;;;;;;;18.00;99.90;;;;;;5091928;28;19938;-68
2023/10/19 11:57:43;;;;;;;;;;;18.00;99.90;;;;;;5097859;28;19956;-71
2023/10/19 12:00:21;;;;;;;;;;;17.90;99.90;;;;;;5097290;28;19960;-69
2023/10/19 12:02:48;;;;;;;;;;;17.90;99.90;;;;;;5116357;28;19915;-67
2023/10/19 12:05:15;;;;;;;;;;;17.90;99.90;;;;;;5116554;28;19908;-67
2023/10/19 12:07:44;;;;;;;;;;;17.90;99.90;;;;;;5116074;28;20037;-66
2023/10/19 12:10:12;;;;;;;;;;;17.90;99.90;;;;;;5116138;28;20289;-67
2023/10/19 12:12:39;;;;;;;;;;;17.90;99.90;;;;;;5098032;28;19994;-71
2023/10/19 12:15:06;;;;;;;;;;;18.00;99.90;;;;;;5116001;28;19965;-68
2023/10/19 12:17:33;;;;;;;;;;;18.00;99.90;;;;;;5116625;28;19931;-67
2023/10/19 12:20:00;;;;;;;;;;;17.90;99.90;;;;;;5115963;28;19911;-67
2023/10/19 12:22:32;;;;;;;;;;;17.80;99.90;;;;;;5116368;28;20367;-70
2023/10/19 12:24:59;;;;;;;;;;;17.90;99.90;;;;;;5116112;28;19912;-65
2023/10/19 12:27:25;;;;;;;;;;;17.80;99.90;;;;;;5116270;28;20388;-66
2023/10/19 12:29:55;;;;;;;;;;;17.70;99.90;;;;;;5115854;28;19907;-69
2023/10/19 12:32:22;;;;;;;;;;;17.70;99.90;;;;;;5115954;28;19912;-74
2023/10/19 12:34:57;;;;;;;;;;;17.70;99.90;;;;;;5116174;28;20003;-69
2023/10/19 12:37:24;;;;;;;;;;;17.60;99.90;;;;;;5115841;28;19953;-69
2023/10/19 12:39:52;;;;;;;;;;;17.50;99.90;;;;;;5115849;28;19908;-70
2023/10/19 12:42:18;;;;;;;;;;;17.40;99.90;;;;;;5115085;28;19920;-66
2023/10/19 12:44:45;;;;;;;;;;;17.40;99.90;;;;;;5115623;28;19908;-68
2023/10/19 12:47:16;;;;;;;;;;;17.40;99.90;;;;;;5115622;28;19908;-66
2023/10/19 12:49:46;;;;;;;;;;;17.40;99.90;;;;;;5115041;28;19908;-69
2023/10/19 12:52:12;;;;;;;;;;;17.30;99.90;;;;;;5115254;28;19907;-67
2023/10/19 12:54:43;;;;;;;;;;;17.30;99.90;;;;;;5101064;28;19923;-68
2023/10/19 12:57:10;;;;;;;;;;;17.30;99.90;;;;;;5100368;28;19961;-68
2023/10/19 12:59:37;;;;;;;;;;;17.20;99.90;;;;;;5115137;28;19954;-71
2023/10/19 13:02:04;;;;;;;;;;;17.20;99.90;;;;;;5115244;28;20459;-71
2023/10/19 13:04:31;;;;;;;;;;;17.00;99.90;;;;;;5096281;28;19996;-69
2023/10/19 13:06:57;;;;;;;;;;;17.00;99.90;;;;;;5115228;28;20454;-69
2023/10/19 13:09:36;;;;;;;;;;;17.00;99.90;;;;;;5113777;28;19912;-73
2023/10/19 13:12:07;;;;;;;;;;;17.00;99.90;;;;;;5115431;28;19994;-73
2023/10/19 13:14:34;;;;;;;;;;;17.00;99.90;;;;;;5115344;28;19960;-72
2023/10/19 13:17:00;;;;;;;;;;;17.00;99.90;;;;;;5112747;28;19934;-66
2023/10/19 13:19:27;;;;;;;;;;;16.90;99.90;;;;;;5094682;28;19908;-69
2023/10/19 13:21:54;;;;;;;;;;;16.90;99.90;;;;;;5094228;28;19920;-73
2023/10/19 13:24:21;;;;;;;;;;;16.80;99.90;;;;;;5094438;28;19908;-71
2023/10/19 13:26:48;;;;;;;;;;;16.80;99.90;;;;;;5094375;28;19909;-70
2023/10/19 13:29:15;;;;;;;;;;;16.80;99.90;;;;;;5094348;28;20379;-71
2023/10/19 13:31:48;;;;;;;;;;;16.70;99.90;;;;;;5094322;28;19950;-71
2023/10/19 13:34:16;;;;;;;;;;;16.70;99.90;;;;;;5094215;28;19908;-71
2023/10/19 13:36:44;;;;;;;;;;;16.70;99.90;;;;;;5094242;28;19915;-67
2023/10/19 13:39:16;;;;;;;;;;;16.70;99.90;;;;;;5094289;28;19912;-71
2023/10/19 13:41:44;;;;;;;;;;;16.60;99.90;;;;;;5094083;28;19963;-70
2023/10/19 13:44:11;;;;;;;;;;;16.60;99.90;;;;;;5094085;28;19908;-70
2023/10/19 13:46:38;;;;;;;;;;;16.50;99.90;;;;;;5094153;28;19909;-69
2023/10/19 13:49:05;;;;;;;;;;;16.60;99.90;;;;;;5093888;28;19943;-72
2023/10/19 13:51:33;;;;;;;;;;;16.60;99.90;;;;;;5093701;28;19912;-70
2023/10/19 13:53:59;;;;;;;;;;;16.50;99.90;;;;;;5075728;28;19956;-69
2023/10/19 13:56:26;;;;;;;;;;;16.50;99.90;;;;;;5093835;28;19939;-72
2023/10/19 13:58:54;;;;;;;;;;;16.40;99.90;;;;;;5108158;28;20292;-66
2023/10/19 14:01:24;;;;;;;;;;;16.40;99.90;;;;;;5113780;28;19919;-73
2023/10/19 14:03:54;;;;;;;;;;;16.40;99.90;;;;;;5113922;28;19966;-71
2023/10/19 14:06:22;;;;;;;;;;;16.40;99.90;;;;;;5114072;28;19912;-71
2023/10/19 14:08:48;;;;;;;;;;;16.30;99.90;;;;;;5113406;28;19915;-71
2023/10/19 14:11:15;;;;;;;;;;;16.30;99.90;;;;;;5113982;28;19912;-71
2023/10/19 14:13:42;;;;;;;;;;;16.30;99.90;;;;;;5114060;28;19908;-67
2023/10/19 14:16:09;;;;;;;;;;;16.20;99.90;;;;;;5114219;28;20002;-72
2023/10/19 14:18:37;;;;;;;;;;;16.20;99.90;;;;;;5113713;28;19907;-70
2023/10/19 14:21:13;;;;;;;;;;;16.30;99.90;;;;;;5113276;28;20018;-68
2023/10/19 14:23:40;;;;;;;;;;;16.20;99.90;;;;;;5113872;28;19914;-68
2023/10/19 14:26:08;;;;;;;;;;;16.20;99.90;;;;;;5114037;28;19915;-70
2023/10/19 14:28:35;;;;;;;;;;;16.20;99.90;;;;;;5113688;28;19912;-66
2023/10/19 14:31:03;;;;;;;;;;;16.10;99.90;;;;;;5113790;28;20264;-73
2023/10/19 14:33:31;;;;;;;;;;;16.10;99.90;;;;;;5112739;28;19908;-73
2023/10/19 14:35:57;;;;;;;;;;;16.00;99.90;;;;;;5113720;28;19912;-66
2023/10/19 14:38:27;;;;;;;;;;;15.90;99.90;;;;;;5113752;28;19907;-70
2023/10/19 14:40:53;;;;;;;;;;;16.00;99.90;;;;;;5113465;28;20323;-70
2023/10/19 14:43:20;;;;;;;;;;;15.90;99.90;;;;;;5113659;28;20443;-72